BUFBUFFALO NIAGARA INTL
METARs for airports near BUF, sorted by distance:
N 0 nm 726' KBUF 221754Z 24009KT 10SM CLR 09/M02 A3012
NW 13 nm 592' KIAG 221753Z 25009G14KT 10SM CLR 13/M06 A3010
E 25 nm 913' KGVQ 221756Z 31009G17KT 10SM CLR 10/M08 A3010
SW 35 nm 692' KDKK 221753Z 25007KT 10SM CLR 12/M08 A3014
S 44 nm 2135' KOLE 221755Z 30006KT 270V360 10SM CLR 09/M10 A3008
E 47 nm 558' KROC 221754Z 34008KT 10SM FEW050 12/M03 A3011
SE 50 nm 659' KDSV 221754Z 33013G21KT 10SM CLR 14/M07 A3009
SW 52 nm 1723' KJHW 221756Z 30011G17KT 10SM CLR 10/M04 A3011
SE 59 nm 2124' KELZ 221756Z 32009G24KT 10SM CLR 11/M09 A3009
E 61 nm 813' KIUA 221755Z 27007G14KT 10SM CLR 12/M01 A3010
S 68 nm 2143' KBFD 221753Z 31011G21KT 10SM CLR 12/M05 A3009
E 72 nm 424' KSDC 221755Z 35005KT 10SM CLR 09/M02 A3013
E 76 nm 988' KPEO 221753Z 29004KT 10SM CLR 11/M05 A3009
SW 82 nm 732' KERI 221751Z 27008G20KT 240V300 10SM CLR 13/M04 A3014
S 92 nm 1934' KOYM 221755Z 28009G14KT 270V340 10SM SCT065 BKN080 OVC110 12/M05 A3012
SE 93 nm 955' KELM 221753Z 33009G20KT 10SM CLR 14/M08 A3007
TAFs for airports near BUF, sorted by distance:
N 0 nm 726' KBUF KBUF 221736Z 2218/2318 24011G20KT P6SM SKC
  FM222300 22009KT P6SM SKC
  FM230300 18008KT P6SM FEW250
  FM230800 19012G20KT P6SM BKN250
  FM231300 20017G28KT P6SM BKN250
  FM231700 22019G33KT P6SM BKN100
NW 13 nm 592' KIAG TAF KIAG 221736Z 2218/2318 28011G16KT P6SM SKC
  FM222000 23010KT P6SM SKC
  FM222200 21011G17KT P6SM SKC
  FM230600 19011G18KT P6SM BKN250
  FM231100 20016G25KT P6SM BKN250
  FM231400 21020G33KT P6SM BKN100
E 47 nm 558' KROC KROC 221736Z 2218/2318 29011G16KT P6SM FEW050
  FM222100 31007KT P6SM FEW250
  FM230000 21005KT P6SM FEW250
  FM230400 19007KT P6SM FEW250
  FM231000 20011G18KT P6SM SCT250
  FM231400 21015G25KT P6SM BKN250
SW 52 nm 1723' KJHW KJHW 221736Z 2218/2318 31014G18KT P6SM SKC
  FM222200 28008KT P6SM SKC
  FM230000 26005KT P6SM SKC
  FM230600 18007KT P6SM SCT250
  FM231100 19010G18KT P6SM BKN250
  FM231400 20015G25KT P6SM BKN250
S 68 nm 2143' KBFD KBFD 221740Z 2218/2318 31012G21KT P6SM FEW060
  FM222200 30008G15KT P6SM SKC
  FM230000 VRB02KT P6SM SCT250
  FM231200 18007KT P6SM BKN150 BKN220
  FM231300 21010G18KT P6SM BKN080 OVC120
  FM231700 21012G20KT P6SM OVC070
SW 82 nm 732' KERI TAF KERI 221720Z 2218/2318 29007KT P6SM SKC
  FM222200 VRB04KT P6SM FEW250
  FM230000 18010KT P6SM FEW150 BKN250
  FM231300 20018G28KT P6SM SCT150 BKN250
SE 93 nm 955' KELM KELM 221721Z 2218/2318 33012G21KT P6SM SKC
  FM230000 30004KT P6SM SKC
  FM231600 21012G24KT P6SM SCT220

Shortcut to this page: http://wxbay.com.

Data may contain errors.